sensor_id;sensor_type;location;lat;lon;timestamp;P1;durP1;ratioP1;P2;durP2;ratioP2
60354;SDS011;46198;51.464;-0.066;2023-08-08T00:00:43;3.20;;;1.35;;
60354;SDS011;46198;51.464;-0.066;2023-08-08T00:03:13;5.97;;;1.52;;
60354;SDS011;46198;51.464;-0.066;2023-08-08T00:05:41;3.10;;;1.67;;
60354;SDS011;46198;51.464;-0.066;2023-08-08T00:08:09;5.60;;;1.60;;
60354;SDS011;46198;51.464;-0.066;2023-08-08T00:10:37;3.63;;;1.70;;
60354;SDS011;46198;51.464;-0.066;2023-08-08T00:13:05;2.78;;;1.73;;
60354;SDS011;46198;51.464;-0.066;2023-08-08T00:15:33;2.80;;;1.27;;
60354;SDS011;46198;51.464;-0.066;2023-08-08T00:18:02;1.80;;;1.33;;
60354;SDS011;46198;51.464;-0.066;2023-08-08T00:20:32;5.13;;;1.52;;
60354;SDS011;46198;51.464;-0.066;2023-08-08T00:23:00;10.93;;;1.80;;
60354;SDS011;46198;51.464;-0.066;2023-08-08T00:25:28;3.20;;;1.63;;
60354;SDS011;46198;51.464;-0.066;2023-08-08T00:27:56;4.32;;;1.80;;
60354;SDS011;46198;51.464;-0.066;2023-08-08T00:30:24;2.78;;;1.50;;
60354;SDS011;46198;51.464;-0.066;2023-08-08T00:32:52;2.95;;;1.48;;
60354;SDS011;46198;51.464;-0.066;2023-08-08T00:35:20;6.40;;;1.98;;
60354;SDS011;46198;51.464;-0.066;2023-08-08T00:37:50;10.30;;;1.83;;
60354;SDS011;46198;51.464;-0.066;2023-08-08T00:40:18;7.38;;;1.52;;
60354;SDS011;46198;51.464;-0.066;2023-08-08T00:42:46;3.17;;;1.67;;
60354;SDS011;46198;51.464;-0.066;2023-08-08T00:45:14;2.55;;;1.60;;
60354;SDS011;46198;51.464;-0.066;2023-08-08T00:47:43;3.35;;;1.70;;
60354;SDS011;46198;51.464;-0.066;2023-08-08T00:50:12;5.90;;;1.80;;
60354;SDS011;46198;51.464;-0.066;2023-08-08T00:52:41;3.65;;;1.65;;
60354;SDS011;46198;51.464;-0.066;2023-08-08T00:55:12;3.78;;;2.28;;
60354;SDS011;46198;51.464;-0.066;2023-08-08T00:57:41;2.42;;;1.35;;
60354;SDS011;46198;51.464;-0.066;2023-08-08T01:00:10;2.45;;;1.33;;
60354;SDS011;46198;51.464;-0.066;2023-08-08T01:02:38;3.92;;;1.30;;
60354;SDS011;46198;51.464;-0.066;2023-08-08T01:05:07;2.63;;;1.50;;
60354;SDS011;46198;51.464;-0.066;2023-08-08T01:07:37;5.53;;;1.80;;
60354;SDS011;46198;51.464;-0.066;2023-08-08T01:10:09;2.83;;;1.63;;
60354;SDS011;46198;51.464;-0.066;2023-08-08T01:12:42;4.28;;;1.52;;
60354;SDS011;46198;51.464;-0.066;2023-08-08T01:15:13;3.05;;;1.50;;
60354;SDS011;46198;51.464;-0.066;2023-08-08T01:17:42;6.03;;;1.58;;
60354;SDS011;46198;51.464;-0.066;2023-08-08T01:20:11;5.57;;;1.60;;
60354;SDS011;46198;51.464;-0.066;2023-08-08T01:22:45;5.63;;;1.90;;
60354;SDS011;46198;51.464;-0.066;2023-08-08T01:25:21;2.95;;;1.63;;
60354;SDS011;46198;51.464;-0.066;2023-08-08T01:27:50;5.15;;;1.55;;
60354;SDS011;46198;51.464;-0.066;2023-08-08T01:30:18;3.70;;;1.63;;
60354;SDS011;46198;51.464;-0.066;2023-08-08T01:32:46;3.10;;;1.42;;
60354;SDS011;46198;51.464;-0.066;2023-08-08T01:35:15;3.60;;;1.75;;
60354;SDS011;46198;51.464;-0.066;2023-08-08T01:37:43;2.83;;;1.67;;
60354;SDS011;46198;51.464;-0.066;2023-08-08T01:40:16;5.32;;;1.63;;
60354;SDS011;46198;51.464;-0.066;2023-08-08T01:42:47;4.43;;;2.08;;
60354;SDS011;46198;51.464;-0.066;2023-08-08T01:47:48;3.38;;;1.58;;
60354;SDS011;46198;51.464;-0.066;2023-08-08T01:50:17;4.50;;;1.90;;
60354;SDS011;46198;51.464;-0.066;2023-08-08T01:52:45;4.10;;;1.55;;
60354;SDS011;46198;51.464;-0.066;2023-08-08T01:55:13;4.88;;;1.75;;
60354;SDS011;46198;51.464;-0.066;2023-08-08T01:57:42;3.42;;;1.60;;
60354;SDS011;46198;51.464;-0.066;2023-08-08T02:00:12;3.63;;;1.70;;
60354;SDS011;46198;51.464;-0.066;2023-08-08T02:05:11;2.72;;;1.65;;
60354;SDS011;46198;51.464;-0.066;2023-08-08T02:07:39;3.47;;;1.75;;
60354;SDS011;46198;51.464;-0.066;2023-08-08T02:10:07;2.00;;;1.70;;
60354;SDS011;46198;51.464;-0.066;2023-08-08T02:12:35;3.08;;;1.90;;
60354;SDS011;46198;51.464;-0.066;2023-08-08T02:15:04;5.50;;;1.90;;
60354;SDS011;46198;51.464;-0.066;2023-08-08T02:17:35;4.07;;;2.25;;
60354;SDS011;46198;51.464;-0.066;2023-08-08T02:20:03;3.08;;;1.65;;
60354;SDS011;46198;51.464;-0.066;2023-08-08T02:22:33;3.65;;;2.60;;
60354;SDS011;46198;51.464;-0.066;2023-08-08T02:25:01;2.97;;;1.30;;
60354;SDS011;46198;51.464;-0.066;2023-08-08T02:27:30;4.68;;;2.00;;
60354;SDS011;46198;51.464;-0.066;2023-08-08T02:29:58;6.35;;;1.70;;
60354;SDS011;46198;51.464;-0.066;2023-08-08T02:32:26;2.00;;;1.60;;
60354;SDS011;46198;51.464;-0.066;2023-08-08T02:34:56;2.78;;;1.80;;
60354;SDS011;46198;51.464;-0.066;2023-08-08T02:37:24;3.58;;;1.67;;
60354;SDS011;46198;51.464;-0.066;2023-08-08T02:39:52;3.10;;;1.85;;
60354;SDS011;46198;51.464;-0.066;2023-08-08T02:42:20;3.83;;;1.45;;
60354;SDS011;46198;51.464;-0.066;2023-08-08T02:44:48;4.97;;;2.50;;
60354;SDS011;46198;51.464;-0.066;2023-08-08T02:47:16;3.75;;;1.67;;
60354;SDS011;46198;51.464;-0.066;2023-08-08T02:49:44;4.88;;;1.50;;
60354;SDS011;46198;51.464;-0.066;2023-08-08T02:52:14;2.60;;;1.80;;
60354;SDS011;46198;51.464;-0.066;2023-08-08T02:54:42;3.67;;;1.50;;
60354;SDS011;46198;51.464;-0.066;2023-08-08T02:57:11;3.42;;;1.52;;
60354;SDS011;46198;51.464;-0.066;2023-08-08T02:59:40;4.55;;;1.90;;
60354;SDS011;46198;51.464;-0.066;2023-08-08T03:02:08;4.00;;;1.73;;
60354;SDS011;46198;51.464;-0.066;2023-08-08T03:04:38;5.82;;;1.83;;
60354;SDS011;46198;51.464;-0.066;2023-08-08T03:07:07;3.03;;;1.50;;
60354;SDS011;46198;51.464;-0.066;2023-08-08T03:09:38;3.90;;;2.53;;
60354;SDS011;46198;51.464;-0.066;2023-08-08T03:12:09;2.50;;;1.42;;
60354;SDS011;46198;51.464;-0.066;2023-08-08T03:14:37;3.55;;;2.28;;
60354;SDS011;46198;51.464;-0.066;2023-08-08T03:17:05;2.97;;;1.75;;
60354;SDS011;46198;51.464;-0.066;2023-08-08T03:19:33;2.78;;;1.58;;
60354;SDS011;46198;51.464;-0.066;2023-08-08T03:22:02;4.68;;;1.85;;
60354;SDS011;46198;51.464;-0.066;2023-08-08T03:24:34;2.67;;;1.40;;
60354;SDS011;46198;51.464;-0.066;2023-08-08T03:27:04;3.47;;;1.83;;
60354;SDS011;46198;51.464;-0.066;2023-08-08T03:29:33;2.58;;;1.55;;
60354;SDS011;46198;51.464;-0.066;2023-08-08T03:32:01;2.50;;;1.30;;
60354;SDS011;46198;51.464;-0.066;2023-08-08T03:34:31;6.43;;;2.78;;
60354;SDS011;46198;51.464;-0.066;2023-08-08T03:37:01;5.18;;;1.65;;
60354;SDS011;46198;51.464;-0.066;2023-08-08T03:39:29;1.63;;;1.52;;
60354;SDS011;46198;51.464;-0.066;2023-08-08T03:41:57;3.53;;;2.00;;
60354;SDS011;46198;51.464;-0.066;2023-08-08T03:44:27;2.75;;;1.60;;
60354;SDS011;46198;51.464;-0.066;2023-08-08T03:46:55;2.60;;;1.55;;
60354;SDS011;46198;51.464;-0.066;2023-08-08T03:49:43;3.53;;;1.80;;
60354;SDS011;46198;51.464;-0.066;2023-08-08T03:52:11;3.20;;;1.70;;
60354;SDS011;46198;51.464;-0.066;2023-08-08T03:54:40;4.60;;;1.77;;
60354;SDS011;46198;51.464;-0.066;2023-08-08T03:57:08;1.85;;;1.60;;
60354;SDS011;46198;51.464;-0.066;2023-08-08T03:59:37;2.88;;;1.98;;
60354;SDS011;46198;51.464;-0.066;2023-08-08T04:02:05;4.82;;;1.50;;
60354;SDS011;46198;51.464;-0.066;2023-08-08T04:04:34;2.00;;;1.40;;
60354;SDS011;46198;51.464;-0.066;2023-08-08T04:07:02;3.85;;;1.45;;
60354;SDS011;46198;51.464;-0.066;2023-08-08T04:09:30;1.42;;;1.30;;
60354;SDS011;46198;51.464;-0.066;2023-08-08T04:11:59;5.10;;;1.40;;
60354;SDS011;46198;51.464;-0.066;2023-08-08T04:14:27;2.95;;;1.45;;
60354;SDS011;46198;51.464;-0.066;2023-08-08T04:16:57;4.65;;;1.40;;
60354;SDS011;46198;51.464;-0.066;2023-08-08T04:19:26;2.90;;;1.60;;
60354;SDS011;46198;51.464;-0.066;2023-08-08T04:21:54;4.43;;;1.50;;
60354;SDS011;46198;51.464;-0.066;2023-08-08T04:24:23;3.90;;;1.45;;
60354;SDS011;46198;51.464;-0.066;2023-08-08T04:26:51;5.93;;;1.55;;
60354;SDS011;46198;51.464;-0.066;2023-08-08T04:29:19;3.05;;;2.25;;
60354;SDS011;46198;51.464;-0.066;2023-08-08T04:31:47;3.00;;;1.50;;
60354;SDS011;46198;51.464;-0.066;2023-08-08T04:34:16;3.50;;;1.70;;
60354;SDS011;46198;51.464;-0.066;2023-08-08T04:36:44;3.45;;;1.48;;
60354;SDS011;46198;51.464;-0.066;2023-08-08T04:39:12;1.50;;;1.25;;
60354;SDS011;46198;51.464;-0.066;2023-08-08T04:41:40;3.97;;;1.83;;
60354;SDS011;46198;51.464;-0.066;2023-08-08T04:44:09;3.33;;;1.60;;
60354;SDS011;46198;51.464;-0.066;2023-08-08T04:46:36;3.47;;;1.70;;
60354;SDS011;46198;51.464;-0.066;2023-08-08T04:49:05;3.63;;;1.70;;
60354;SDS011;46198;51.464;-0.066;2023-08-08T04:51:34;3.80;;;1.80;;
60354;SDS011;46198;51.464;-0.066;2023-08-08T04:54:02;3.05;;;1.85;;
60354;SDS011;46198;51.464;-0.066;2023-08-08T04:56:30;3.55;;;1.58;;
60354;SDS011;46198;51.464;-0.066;2023-08-08T04:58:59;5.63;;;1.60;;
60354;SDS011;46198;51.464;-0.066;2023-08-08T05:01:27;2.05;;;1.20;;
60354;SDS011;46198;51.464;-0.066;2023-08-08T05:03:55;6.15;;;1.70;;
60354;SDS011;46198;51.464;-0.066;2023-08-08T05:06:23;3.10;;;1.60;;
60354;SDS011;46198;51.464;-0.066;2023-08-08T05:08:53;4.60;;;1.50;;
60354;SDS011;46198;51.464;-0.066;2023-08-08T05:11:21;3.80;;;2.40;;
60354;SDS011;46198;51.464;-0.066;2023-08-08T05:13:49;2.17;;;1.70;;
60354;SDS011;46198;51.464;-0.066;2023-08-08T05:16:18;3.80;;;1.60;;
60354;SDS011;46198;51.464;-0.066;2023-08-08T05:18:46;2.72;;;1.55;;
60354;SDS011;46198;51.464;-0.066;2023-08-08T05:21:14;2.95;;;1.80;;
60354;SDS011;46198;51.464;-0.066;2023-08-08T05:23:42;1.70;;;1.40;;
60354;SDS011;46198;51.464;-0.066;2023-08-08T05:26:11;4.50;;;1.98;;
60354;SDS011;46198;51.464;-0.066;2023-08-08T05:28:39;5.57;;;2.00;;
60354;SDS011;46198;51.464;-0.066;2023-08-08T05:31:07;3.75;;;1.83;;
60354;SDS011;46198;51.464;-0.066;2023-08-08T05:33:35;2.90;;;1.60;;
60354;SDS011;46198;51.464;-0.066;2023-08-08T05:36:04;4.47;;;1.90;;
60354;SDS011;46198;51.464;-0.066;2023-08-08T05:38:32;3.97;;;1.63;;
60354;SDS011;46198;51.464;-0.066;2023-08-08T05:41:00;3.88;;;2.00;;
60354;SDS011;46198;51.464;-0.066;2023-08-08T05:43:29;7.43;;;2.63;;
60354;SDS011;46198;51.464;-0.066;2023-08-08T05:45:57;2.67;;;1.70;;
60354;SDS011;46198;51.464;-0.066;2023-08-08T05:48:25;5.35;;;1.70;;
60354;SDS011;46198;51.464;-0.066;2023-08-08T05:50:53;4.70;;;1.83;;
60354;SDS011;46198;51.464;-0.066;2023-08-08T05:53:25;5.25;;;1.70;;
60354;SDS011;46198;51.464;-0.066;2023-08-08T05:55:53;4.60;;;1.65;;
60354;SDS011;46198;51.464;-0.066;2023-08-08T05:58:21;4.63;;;1.60;;
60354;SDS011;46198;51.464;-0.066;2023-08-08T06:00:51;4.53;;;1.90;;
60354;SDS011;46198;51.464;-0.066;2023-08-08T06:03:19;3.10;;;1.92;;
60354;SDS011;46198;51.464;-0.066;2023-08-08T06:05:48;3.67;;;1.60;;
60354;SDS011;46198;51.464;-0.066;2023-08-08T06:08:16;5.22;;;1.70;;
60354;SDS011;46198;51.464;-0.066;2023-08-08T06:10:44;4.63;;;2.22;;
60354;SDS011;46198;51.464;-0.066;2023-08-08T06:13:12;3.20;;;1.60;;
60354;SDS011;46198;51.464;-0.066;2023-08-08T06:15:40;4.22;;;1.98;;
60354;SDS011;46198;51.464;-0.066;2023-08-08T06:18:10;1.88;;;1.50;;
60354;SDS011;46198;51.464;-0.066;2023-08-08T06:20:38;3.03;;;2.10;;
60354;SDS011;46198;51.464;-0.066;2023-08-08T06:23:06;6.25;;;1.90;;
60354;SDS011;46198;51.464;-0.066;2023-08-08T06:25:34;2.97;;;1.75;;
60354;SDS011;46198;51.464;-0.066;2023-08-08T06:28:02;5.00;;;1.95;;
60354;SDS011;46198;51.464;-0.066;2023-08-08T06:30:31;4.28;;;2.10;;
60354;SDS011;46198;51.464;-0.066;2023-08-08T06:32:59;3.15;;;1.95;;
60354;SDS011;46198;51.464;-0.066;2023-08-08T06:35:28;4.22;;;1.88;;
60354;SDS011;46198;51.464;-0.066;2023-08-08T06:37:56;3.50;;;1.90;;
60354;SDS011;46198;51.464;-0.066;2023-08-08T06:40:24;5.63;;;2.40;;
60354;SDS011;46198;51.464;-0.066;2023-08-08T06:42:53;2.38;;;1.83;;
60354;SDS011;46198;51.464;-0.066;2023-08-08T06:45:22;4.97;;;2.20;;
60354;SDS011;46198;51.464;-0.066;2023-08-08T06:47:50;2.65;;;1.80;;
60354;SDS011;46198;51.464;-0.066;2023-08-08T06:50:19;10.02;;;2.13;;
60354;SDS011;46198;51.464;-0.066;2023-08-08T06:52:48;3.45;;;2.10;;
60354;SDS011;46198;51.464;-0.066;2023-08-08T06:55:16;4.55;;;1.98;;
60354;SDS011;46198;51.464;-0.066;2023-08-08T06:57:45;5.20;;;2.00;;
60354;SDS011;46198;51.464;-0.066;2023-08-08T07:00:14;2.95;;;2.10;;
60354;SDS011;46198;51.464;-0.066;2023-08-08T07:02:42;5.28;;;1.95;;
60354;SDS011;46198;51.464;-0.066;2023-08-08T07:05:11;6.43;;;2.10;;
60354;SDS011;46198;51.464;-0.066;2023-08-08T07:07:39;6.95;;;3.58;;
60354;SDS011;46198;51.464;-0.066;2023-08-08T07:10:09;3.47;;;1.90;;
60354;SDS011;46198;51.464;-0.066;2023-08-08T07:12:38;3.85;;;2.20;;
60354;SDS011;46198;51.464;-0.066;2023-08-08T07:15:08;6.70;;;2.20;;
60354;SDS011;46198;51.464;-0.066;2023-08-08T07:17:37;2.65;;;1.83;;
60354;SDS011;46198;51.464;-0.066;2023-08-08T07:20:06;2.65;;;1.70;;
60354;SDS011;46198;51.464;-0.066;2023-08-08T07:22:36;2.35;;;1.50;;
60354;SDS011;46198;51.464;-0.066;2023-08-08T07:25:05;3.60;;;1.83;;
60354;SDS011;46198;51.464;-0.066;2023-08-08T07:27:35;2.60;;;1.50;;
60354;SDS011;46198;51.464;-0.066;2023-08-08T07:30:03;4.47;;;1.73;;
60354;SDS011;46198;51.464;-0.066;2023-08-08T07:32:33;4.60;;;1.90;;
60354;SDS011;46198;51.464;-0.066;2023-08-08T07:35:02;5.47;;;2.03;;
60354;SDS011;46198;51.464;-0.066;2023-08-08T07:37:32;4.53;;;1.40;;
60354;SDS011;46198;51.464;-0.066;2023-08-08T07:40:00;2.70;;;1.42;;
60354;SDS011;46198;51.464;-0.066;2023-08-08T07:42:30;5.05;;;1.60;;
60354;SDS011;46198;51.464;-0.066;2023-08-08T07:44:59;6.00;;;1.70;;
60354;SDS011;46198;51.464;-0.066;2023-08-08T07:47:28;3.47;;;1.40;;
60354;SDS011;46198;51.464;-0.066;2023-08-08T07:49:56;3.00;;;1.52;;
60354;SDS011;46198;51.464;-0.066;2023-08-08T07:52:24;3.80;;;1.20;;
60354;SDS011;46198;51.464;-0.066;2023-08-08T07:54:52;3.45;;;1.45;;
60354;SDS011;46198;51.464;-0.066;2023-08-08T07:57:20;4.35;;;1.40;;
60354;SDS011;46198;51.464;-0.066;2023-08-08T07:59:48;2.92;;;1.20;;
60354;SDS011;46198;51.464;-0.066;2023-08-08T08:02:17;5.78;;;1.50;;
60354;SDS011;46198;51.464;-0.066;2023-08-08T08:04:46;1.58;;;1.27;;
60354;SDS011;46198;51.464;-0.066;2023-08-08T08:07:14;4.25;;;1.35;;
60354;SDS011;46198;51.464;-0.066;2023-08-08T08:09:42;3.40;;;1.20;;
60354;SDS011;46198;51.464;-0.066;2023-08-08T08:12:10;2.03;;;1.30;;
60354;SDS011;46198;51.464;-0.066;2023-08-08T08:14:38;2.33;;;1.40;;
60354;SDS011;46198;51.464;-0.066;2023-08-08T08:17:06;4.35;;;1.40;;
60354;SDS011;46198;51.464;-0.066;2023-08-08T08:19:36;2.42;;;1.35;;
60354;SDS011;46198;51.464;-0.066;2023-08-08T08:22:05;3.07;;;1.67;;
60354;SDS011;46198;51.464;-0.066;2023-08-08T08:24:33;4.80;;;1.65;;
60354;SDS011;46198;51.464;-0.066;2023-08-08T08:27:02;6.50;;;1.60;;
60354;SDS011;46198;51.464;-0.066;2023-08-08T08:29:30;3.40;;;1.70;;
60354;SDS011;46198;51.464;-0.066;2023-08-08T08:31:59;3.15;;;1.70;;
60354;SDS011;46198;51.464;-0.066;2023-08-08T08:34:28;2.75;;;1.70;;
60354;SDS011;46198;51.464;-0.066;2023-08-08T08:36:58;2.55;;;1.33;;
60354;SDS011;46198;51.464;-0.066;2023-08-08T08:39:26;2.20;;;1.40;;
60354;SDS011;46198;51.464;-0.066;2023-08-08T08:41:54;3.22;;;1.67;;
60354;SDS011;46198;51.464;-0.066;2023-08-08T08:44:28;3.42;;;1.75;;
60354;SDS011;46198;51.464;-0.066;2023-08-08T08:46:59;6.13;;;1.75;;
60354;SDS011;46198;51.464;-0.066;2023-08-08T08:49:30;4.50;;;1.70;;
60354;SDS011;46198;51.464;-0.066;2023-08-08T08:52:00;5.63;;;1.77;;
60354;SDS011;46198;51.464;-0.066;2023-08-08T08:54:28;1.65;;;1.35;;
60354;SDS011;46198;51.464;-0.066;2023-08-08T08:56:57;4.35;;;2.03;;
60354;SDS011;46198;51.464;-0.066;2023-08-08T08:59:26;3.40;;;2.40;;
60354;SDS011;46198;51.464;-0.066;2023-08-08T09:01:54;5.97;;;2.42;;
60354;SDS011;46198;51.464;-0.066;2023-08-08T09:04:24;4.82;;;2.10;;
60354;SDS011;46198;51.464;-0.066;2023-08-08T09:06:53;5.13;;;2.45;;
60354;SDS011;46198;51.464;-0.066;2023-08-08T09:09:22;5.28;;;2.55;;
60354;SDS011;46198;51.464;-0.066;2023-08-08T09:11:51;5.93;;;2.25;;
60354;SDS011;46198;51.464;-0.066;2023-08-08T09:14:22;5.93;;;2.40;;
60354;SDS011;46198;51.464;-0.066;2023-08-08T09:16:51;4.35;;;2.03;;
60354;SDS011;46198;51.464;-0.066;2023-08-08T09:19:21;4.55;;;2.33;;
60354;SDS011;46198;51.464;-0.066;2023-08-08T09:21:50;3.75;;;2.28;;
60354;SDS011;46198;51.464;-0.066;2023-08-08T09:24:19;4.70;;;1.75;;
60354;SDS011;46198;51.464;-0.066;2023-08-08T09:26:49;5.22;;;2.17;;
60354;SDS011;46198;51.464;-0.066;2023-08-08T09:29:17;4.25;;;2.42;;
60354;SDS011;46198;51.464;-0.066;2023-08-08T09:31:46;5.65;;;2.38;;
60354;SDS011;46198;51.464;-0.066;2023-08-08T09:34:14;4.18;;;2.22;;
60354;SDS011;46198;51.464;-0.066;2023-08-08T09:36:43;5.03;;;2.20;;
60354;SDS011;46198;51.464;-0.066;2023-08-08T09:39:11;3.20;;;1.60;;
60354;SDS011;46198;51.464;-0.066;2023-08-08T09:41:39;4.07;;;2.50;;
60354;SDS011;46198;51.464;-0.066;2023-08-08T09:44:09;4.03;;;1.52;;
60354;SDS011;46198;51.464;-0.066;2023-08-08T09:46:37;4.03;;;2.15;;
60354;SDS011;46198;51.464;-0.066;2023-08-08T09:49:06;2.85;;;1.50;;
60354;SDS011;46198;51.464;-0.066;2023-08-08T09:51:37;3.05;;;1.83;;
60354;SDS011;46198;51.464;-0.066;2023-08-08T09:54:06;3.60;;;2.40;;
60354;SDS011;46198;51.464;-0.066;2023-08-08T09:56:34;5.88;;;2.85;;
60354;SDS011;46198;51.464;-0.066;2023-08-08T09:59:03;3.97;;;2.30;;
60354;SDS011;46198;51.464;-0.066;2023-08-08T10:01:34;2.95;;;1.98;;
60354;SDS011;46198;51.464;-0.066;2023-08-08T10:04:05;3.88;;;2.05;;
60354;SDS011;46198;51.464;-0.066;2023-08-08T10:06:35;2.97;;;1.70;;
60354;SDS011;46198;51.464;-0.066;2023-08-08T10:09:03;3.05;;;1.77;;
60354;SDS011;46198;51.464;-0.066;2023-08-08T10:11:31;4.18;;;1.77;;
60354;SDS011;46198;51.464;-0.066;2023-08-08T10:14:01;3.20;;;1.80;;
60354;SDS011;46198;51.464;-0.066;2023-08-08T10:16:31;2.95;;;1.70;;
60354;SDS011;46198;51.464;-0.066;2023-08-08T10:19:03;2.25;;;1.73;;
60354;SDS011;46198;51.464;-0.066;2023-08-08T10:21:33;3.17;;;1.73;;
60354;SDS011;46198;51.464;-0.066;2023-08-08T10:24:03;4.45;;;2.05;;
60354;SDS011;46198;51.464;-0.066;2023-08-08T10:26:32;2.03;;;1.67;;
60354;SDS011;46198;51.464;-0.066;2023-08-08T10:29:01;5.35;;;1.70;;
60354;SDS011;46198;51.464;-0.066;2023-08-08T10:31:33;2.05;;;1.40;;
60354;SDS011;46198;51.464;-0.066;2023-08-08T10:34:05;4.15;;;1.95;;
60354;SDS011;46198;51.464;-0.066;2023-08-08T10:39:26;6.05;;;2.50;;
60354;SDS011;46198;51.464;-0.066;2023-08-08T10:41:54;5.50;;;3.03;;
60354;SDS011;46198;51.464;-0.066;2023-08-08T10:44:24;2.90;;;2.28;;
60354;SDS011;46198;51.464;-0.066;2023-08-08T10:46:53;4.28;;;2.50;;
60354;SDS011;46198;51.464;-0.066;2023-08-08T10:49:24;4.53;;;2.58;;
60354;SDS011;46198;51.464;-0.066;2023-08-08T10:51:52;3.75;;;2.47;;
60354;SDS011;46198;51.464;-0.066;2023-08-08T10:54:22;4.35;;;2.65;;
60354;SDS011;46198;51.464;-0.066;2023-08-08T10:56:55;4.68;;;2.72;;
60354;SDS011;46198;51.464;-0.066;2023-08-08T10:59:27;5.63;;;2.95;;
60354;SDS011;46198;51.464;-0.066;2023-08-08T11:02:04;5.80;;;2.45;;
60354;SDS011;46198;51.464;-0.066;2023-08-08T11:04:33;3.92;;;2.53;;
60354;SDS011;46198;51.464;-0.066;2023-08-08T11:07:03;3.70;;;2.53;;
60354;SDS011;46198;51.464;-0.066;2023-08-08T11:09:31;2.92;;;2.50;;
60354;SDS011;46198;51.464;-0.066;2023-08-08T11:12:00;5.80;;;2.55;;
60354;SDS011;46198;51.464;-0.066;2023-08-08T11:14:29;5.78;;;3.47;;
60354;SDS011;46198;51.464;-0.066;2023-08-08T11:16:57;13.57;;;6.00;;
60354;SDS011;46198;51.464;-0.066;2023-08-08T11:19:25;4.28;;;3.25;;
60354;SDS011;46198;51.464;-0.066;2023-08-08T11:21:54;3.67;;;2.67;;
60354;SDS011;46198;51.464;-0.066;2023-08-08T11:24:22;5.10;;;2.97;;
60354;SDS011;46198;51.464;-0.066;2023-08-08T11:26:57;6.03;;;4.22;;
60354;SDS011;46198;51.464;-0.066;2023-08-08T11:29:26;8.05;;;4.50;;
60354;SDS011;46198;51.464;-0.066;2023-08-08T11:31:57;6.13;;;3.20;;
60354;SDS011;46198;51.464;-0.066;2023-08-08T11:34:29;6.32;;;3.22;;
60354;SDS011;46198;51.464;-0.066;2023-08-08T11:37:00;6.63;;;4.38;;
60354;SDS011;46198;51.464;-0.066;2023-08-08T11:39:29;5.38;;;3.92;;
60354;SDS011;46198;51.464;-0.066;2023-08-08T11:41:57;5.72;;;4.22;;
60354;SDS011;46198;51.464;-0.066;2023-08-08T11:44:25;5.07;;;3.33;;
60354;SDS011;46198;51.464;-0.066;2023-08-08T11:46:54;7.85;;;3.72;;
60354;SDS011;46198;51.464;-0.066;2023-08-08T11:49:22;8.05;;;4.90;;
60354;SDS011;46198;51.464;-0.066;2023-08-08T11:51:50;3.22;;;2.28;;
60354;SDS011;46198;51.464;-0.066;2023-08-08T11:54:24;4.60;;;2.67;;
60354;SDS011;46198;51.464;-0.066;2023-08-08T11:56:54;4.97;;;2.85;;
60354;SDS011;46198;51.464;-0.066;2023-08-08T11:59:23;5.32;;;2.60;;
60354;SDS011;46198;51.464;-0.066;2023-08-08T12:01:51;7.50;;;4.32;;
60354;SDS011;46198;51.464;-0.066;2023-08-08T12:04:20;6.57;;;3.83;;
60354;SDS011;46198;51.464;-0.066;2023-08-08T12:06:51;4.55;;;3.03;;
60354;SDS011;46198;51.464;-0.066;2023-08-08T12:09:30;5.47;;;2.80;;
60354;SDS011;46198;51.464;-0.066;2023-08-08T12:12:00;4.30;;;2.60;;
60354;SDS011;46198;51.464;-0.066;2023-08-08T12:14:28;4.70;;;2.97;;
60354;SDS011;46198;51.464;-0.066;2023-08-08T12:16:57;3.22;;;2.53;;
60354;SDS011;46198;51.464;-0.066;2023-08-08T12:19:26;5.50;;;3.15;;
60354;SDS011;46198;51.464;-0.066;2023-08-08T12:21:55;4.32;;;2.90;;
60354;SDS011;46198;51.464;-0.066;2023-08-08T12:24:23;3.38;;;2.47;;
60354;SDS011;46198;51.464;-0.066;2023-08-08T12:26:52;4.90;;;2.78;;
60354;SDS011;46198;51.464;-0.066;2023-08-08T12:29:20;5.43;;;3.20;;
60354;SDS011;46198;51.464;-0.066;2023-08-08T12:31:49;5.72;;;3.13;;
60354;SDS011;46198;51.464;-0.066;2023-08-08T12:34:17;4.47;;;3.60;;
60354;SDS011;46198;51.464;-0.066;2023-08-08T12:36:45;6.28;;;3.70;;
60354;SDS011;46198;51.464;-0.066;2023-08-08T12:39:13;4.82;;;3.45;;
60354;SDS011;46198;51.464;-0.066;2023-08-08T12:41:41;4.63;;;3.28;;
60354;SDS011;46198;51.464;-0.066;2023-08-08T12:44:11;4.50;;;2.72;;
60354;SDS011;46198;51.464;-0.066;2023-08-08T12:46:39;6.07;;;3.53;;
60354;SDS011;46198;51.464;-0.066;2023-08-08T12:49:07;2.67;;;2.35;;
60354;SDS011;46198;51.464;-0.066;2023-08-08T12:51:35;3.88;;;2.35;;
60354;SDS011;46198;51.464;-0.066;2023-08-08T12:54:03;2.33;;;1.63;;
60354;SDS011;46198;51.464;-0.066;2023-08-08T12:56:32;2.95;;;2.05;;
60354;SDS011;46198;51.464;-0.066;2023-08-08T12:59:00;3.25;;;1.90;;
60354;SDS011;46198;51.464;-0.066;2023-08-08T13:01:30;2.30;;;1.88;;
60354;SDS011;46198;51.464;-0.066;2023-08-08T13:03:59;4.97;;;2.92;;
60354;SDS011;46198;51.464;-0.066;2023-08-08T13:06:44;5.32;;;3.05;;
60354;SDS011;46198;51.464;-0.066;2023-08-08T13:09:12;6.00;;;3.05;;
60354;SDS011;46198;51.464;-0.066;2023-08-08T13:11:41;2.03;;;1.45;;
60354;SDS011;46198;51.464;-0.066;2023-08-08T13:14:09;3.17;;;1.60;;
60354;SDS011;46198;51.464;-0.066;2023-08-08T13:16:39;1.50;;;1.38;;
60354;SDS011;46198;51.464;-0.066;2023-08-08T13:19:07;1.60;;;1.25;;
60354;SDS011;46198;51.464;-0.066;2023-08-08T13:21:35;1.70;;;1.52;;
60354;SDS011;46198;51.464;-0.066;2023-08-08T13:24:03;2.53;;;1.33;;
60354;SDS011;46198;51.464;-0.066;2023-08-08T13:26:32;4.28;;;2.40;;
60354;SDS011;46198;51.464;-0.066;2023-08-08T13:29:00;3.72;;;2.20;;
60354;SDS011;46198;51.464;-0.066;2023-08-08T13:31:28;4.35;;;1.83;;
60354;SDS011;46198;51.464;-0.066;2023-08-08T13:33:57;1.42;;;1.33;;
60354;SDS011;46198;51.464;-0.066;2023-08-08T13:36:25;3.97;;;1.60;;
60354;SDS011;46198;51.464;-0.066;2023-08-08T13:38:54;1.08;;;0.90;;
60354;SDS011;46198;51.464;-0.066;2023-08-08T13:41:22;3.10;;;1.95;;
60354;SDS011;46198;51.464;-0.066;2023-08-08T13:43:50;3.10;;;1.92;;
60354;SDS011;46198;51.464;-0.066;2023-08-08T13:46:18;6.63;;;2.85;;
60354;SDS011;46198;51.464;-0.066;2023-08-08T13:48:46;2.28;;;1.60;;
60354;SDS011;46198;51.464;-0.066;2023-08-08T13:51:16;2.33;;;1.48;;
60354;SDS011;46198;51.464;-0.066;2023-08-08T13:53:44;1.67;;;1.50;;
60354;SDS011;46198;51.464;-0.066;2023-08-08T13:56:15;3.42;;;1.70;;
60354;SDS011;46198;51.464;-0.066;2023-08-08T13:58:44;3.10;;;1.63;;
60354;SDS011;46198;51.464;-0.066;2023-08-08T14:01:13;4.32;;;1.70;;
60354;SDS011;46198;51.464;-0.066;2023-08-08T14:03:41;4.45;;;2.10;;
60354;SDS011;46198;51.464;-0.066;2023-08-08T14:06:09;4.95;;;2.30;;
60354;SDS011;46198;51.464;-0.066;2023-08-08T14:08:39;3.78;;;1.75;;
60354;SDS011;46198;51.464;-0.066;2023-08-08T14:11:07;3.38;;;1.90;;
60354;SDS011;46198;51.464;-0.066;2023-08-08T14:13:36;5.68;;;2.63;;
60354;SDS011;46198;51.464;-0.066;2023-08-08T14:16:05;5.53;;;2.42;;
60354;SDS011;46198;51.464;-0.066;2023-08-08T14:18:33;6.88;;;2.10;;
60354;SDS011;46198;51.464;-0.066;2023-08-08T14:21:02;5.82;;;2.83;;
60354;SDS011;46198;51.464;-0.066;2023-08-08T14:23:31;3.95;;;2.50;;
60354;SDS011;46198;51.464;-0.066;2023-08-08T14:26:01;4.15;;;2.58;;
60354;SDS011;46198;51.464;-0.066;2023-08-08T14:28:29;9.30;;;2.75;;
60354;SDS011;46198;51.464;-0.066;2023-08-08T14:30:57;4.68;;;2.78;;
60354;SDS011;46198;51.464;-0.066;2023-08-08T14:33:25;3.88;;;2.40;;
60354;SDS011;46198;51.464;-0.066;2023-08-08T14:35:54;4.47;;;2.95;;
60354;SDS011;46198;51.464;-0.066;2023-08-08T14:38:23;3.97;;;3.03;;
60354;SDS011;46198;51.464;-0.066;2023-08-08T14:40:52;4.32;;;2.80;;
60354;SDS011;46198;51.464;-0.066;2023-08-08T14:45:52;4.45;;;2.63;;
60354;SDS011;46198;51.464;-0.066;2023-08-08T14:48:20;5.25;;;3.05;;
60354;SDS011;46198;51.464;-0.066;2023-08-08T14:50:49;8.30;;;3.70;;
60354;SDS011;46198;51.464;-0.066;2023-08-08T14:53:17;5.13;;;3.20;;